sensor_id;sensor_type;location;lat;lon;timestamp;temperature;humidity
71237;DHT22;58984;51.960;5.582;2022-11-20T00:03:36;9.60;42.60
71237;DHT22;58984;51.960;5.582;2022-11-20T00:06:08;9.60;42.60
71237;DHT22;58984;51.960;5.582;2022-11-20T00:08:34;9.60;42.70
71237;DHT22;58984;51.960;5.582;2022-11-20T00:11:11;9.60;42.70
71237;DHT22;58984;51.960;5.582;2022-11-20T00:13:36;9.50;42.70
71237;DHT22;58984;51.960;5.582;2022-11-20T00:16:03;9.50;42.70
71237;DHT22;58984;51.960;5.582;2022-11-20T00:18:30;9.50;42.80
71237;DHT22;58984;51.960;5.582;2022-11-20T00:21:09;9.50;42.70
71237;DHT22;58984;51.960;5.582;2022-11-20T00:23:35;9.50;42.80
71237;DHT22;58984;51.960;5.582;2022-11-20T00:26:06;9.50;42.80
71237;DHT22;58984;51.960;5.582;2022-11-20T00:28:33;9.40;42.70
71237;DHT22;58984;51.960;5.582;2022-11-20T00:31:03;9.50;42.80
71237;DHT22;58984;51.960;5.582;2022-11-20T00:33:29;9.40;42.70
71237;DHT22;58984;51.960;5.582;2022-11-20T00:36:03;9.40;42.70
71237;DHT22;58984;51.960;5.582;2022-11-20T00:38:29;9.40;42.70
71237;DHT22;58984;51.960;5.582;2022-11-20T00:41:00;9.40;42.70
71237;DHT22;58984;51.960;5.582;2022-11-20T00:43:26;9.40;42.70
71237;DHT22;58984;51.960;5.582;2022-11-20T00:46:06;9.40;42.80
71237;DHT22;58984;51.960;5.582;2022-11-20T00:48:32;9.30;42.70
71237;DHT22;58984;51.960;5.582;2022-11-20T00:50:58;9.30;42.70
71237;DHT22;58984;51.960;5.582;2022-11-20T00:53:24;9.40;42.80
71237;DHT22;58984;51.960;5.582;2022-11-20T00:55:58;9.30;42.80
71237;DHT22;58984;51.960;5.582;2022-11-20T00:58:27;9.30;42.80
71237;DHT22;58984;51.960;5.582;2022-11-20T01:00:53;9.30;42.80
71237;DHT22;58984;51.960;5.582;2022-11-20T01:03:24;9.30;42.80
71237;DHT22;58984;51.960;5.582;2022-11-20T01:05:50;9.30;42.90
71237;DHT22;58984;51.960;5.582;2022-11-20T01:08:15;9.30;42.90
71237;DHT22;58984;51.960;5.582;2022-11-20T01:10:42;9.30;42.90
71237;DHT22;58984;51.960;5.582;2022-11-20T01:13:08;9.20;42.90
71237;DHT22;58984;51.960;5.582;2022-11-20T01:15:52;9.20;42.90
71237;DHT22;58984;51.960;5.582;2022-11-20T01:18:17;9.20;43.00
71237;DHT22;58984;51.960;5.582;2022-11-20T01:20:43;9.20;43.00
71237;DHT22;58984;51.960;5.582;2022-11-20T01:23:08;9.20;43.00
71237;DHT22;58984;51.960;5.582;2022-11-20T01:25:34;9.20;43.00
71237;DHT22;58984;51.960;5.582;2022-11-20T01:28:00;9.20;43.00
71237;DHT22;58984;51.960;5.582;2022-11-20T01:30:25;9.20;43.00
71237;DHT22;58984;51.960;5.582;2022-11-20T01:32:51;9.10;42.90
71237;DHT22;58984;51.960;5.582;2022-11-20T01:35:17;9.10;42.90
71237;DHT22;58984;51.960;5.582;2022-11-20T01:37:42;9.10;42.90
71237;DHT22;58984;51.960;5.582;2022-11-20T01:40:08;9.10;42.90
71237;DHT22;58984;51.960;5.582;2022-11-20T01:42:34;9.10;42.90
71237;DHT22;58984;51.960;5.582;2022-11-20T01:48:22;9.00;42.90
71237;DHT22;58984;51.960;5.582;2022-11-20T01:50:50;9.10;42.90
71237;DHT22;58984;51.960;5.582;2022-11-20T01:53:17;9.00;42.90
71237;DHT22;58984;51.960;5.582;2022-11-20T01:55:48;9.00;42.90
71237;DHT22;58984;51.960;5.582;2022-11-20T01:58:16;9.00;42.90
71237;DHT22;58984;51.960;5.582;2022-11-20T02:00:42;9.00;42.90
71237;DHT22;58984;51.960;5.582;2022-11-20T02:03:11;9.00;42.90
71237;DHT22;58984;51.960;5.582;2022-11-20T02:05:46;8.90;42.90
71237;DHT22;58984;51.960;5.582;2022-11-20T02:08:15;9.00;43.00
71237;DHT22;58984;51.960;5.582;2022-11-20T02:10:41;9.00;43.00
71237;DHT22;58984;51.960;5.582;2022-11-20T02:13:06;8.90;43.00
71237;DHT22;58984;51.960;5.582;2022-11-20T02:15:51;8.90;43.00
71237;DHT22;58984;51.960;5.582;2022-11-20T02:18:19;8.90;43.00
71237;DHT22;58984;51.960;5.582;2022-11-20T02:20:47;8.90;43.10
71237;DHT22;58984;51.960;5.582;2022-11-20T02:25:49;8.90;43.10
71237;DHT22;58984;51.960;5.582;2022-11-20T02:28:17;8.90;43.00
71237;DHT22;58984;51.960;5.582;2022-11-20T02:30:43;8.80;43.00
71237;DHT22;58984;51.960;5.582;2022-11-20T02:33:08;8.80;43.00
71237;DHT22;58984;51.960;5.582;2022-11-20T02:38:01;8.80;43.00
71237;DHT22;58984;51.960;5.582;2022-11-20T02:40:28;8.80;43.00
71237;DHT22;58984;51.960;5.582;2022-11-20T02:42:55;8.80;43.10
71237;DHT22;58984;51.960;5.582;2022-11-20T02:45:22;8.80;43.10
71237;DHT22;58984;51.960;5.582;2022-11-20T02:47:48;8.80;43.10
71237;DHT22;58984;51.960;5.582;2022-11-20T02:50:14;8.80;43.10
71237;DHT22;58984;51.960;5.582;2022-11-20T02:52:39;8.80;43.10
71237;DHT22;58984;51.960;5.582;2022-11-20T02:55:05;8.80;43.20
71237;DHT22;58984;51.960;5.582;2022-11-20T02:57:31;8.80;43.20
71237;DHT22;58984;51.960;5.582;2022-11-20T02:59:57;8.80;43.20
71237;DHT22;58984;51.960;5.582;2022-11-20T03:02:22;8.80;43.20
71237;DHT22;58984;51.960;5.582;2022-11-20T03:04:48;8.70;43.10
71237;DHT22;58984;51.960;5.582;2022-11-20T03:07:13;8.70;43.10
71237;DHT22;58984;51.960;5.582;2022-11-20T03:09:39;8.70;43.10
71237;DHT22;58984;51.960;5.582;2022-11-20T03:12:05;8.70;43.10
71237;DHT22;58984;51.960;5.582;2022-11-20T03:14:31;8.70;43.10
71237;DHT22;58984;51.960;5.582;2022-11-20T03:16:56;8.70;43.10
71237;DHT22;58984;51.960;5.582;2022-11-20T03:19:22;8.70;43.10
71237;DHT22;58984;51.960;5.582;2022-11-20T03:21:48;8.60;43.00
71237;DHT22;58984;51.960;5.582;2022-11-20T03:24:14;8.60;42.90
71237;DHT22;58984;51.960;5.582;2022-11-20T03:26:40;8.60;42.90
71237;DHT22;58984;51.960;5.582;2022-11-20T03:29:06;8.60;42.90
71237;DHT22;58984;51.960;5.582;2022-11-20T03:31:37;8.60;42.90
71237;DHT22;58984;51.960;5.582;2022-11-20T03:34:06;8.60;42.90
71237;DHT22;58984;51.960;5.582;2022-11-20T03:36:32;8.60;43.00
71237;DHT22;58984;51.960;5.582;2022-11-20T03:38:57;8.50;42.90
71237;DHT22;58984;51.960;5.582;2022-11-20T03:41:25;8.50;42.90
71237;DHT22;58984;51.960;5.582;2022-11-20T03:43:53;8.50;42.90
71237;DHT22;58984;51.960;5.582;2022-11-20T03:46:20;8.50;43.10
71237;DHT22;58984;51.960;5.582;2022-11-20T03:48:46;8.50;43.10
71237;DHT22;58984;51.960;5.582;2022-11-20T03:51:16;8.50;43.10
71237;DHT22;58984;51.960;5.582;2022-11-20T03:53:44;8.50;43.20
71237;DHT22;58984;51.960;5.582;2022-11-20T03:56:12;8.50;43.30
71237;DHT22;58984;51.960;5.582;2022-11-20T03:58:40;8.50;43.30
71237;DHT22;58984;51.960;5.582;2022-11-20T04:01:07;8.40;43.20
71237;DHT22;58984;51.960;5.582;2022-11-20T04:03:34;8.40;43.20
71237;DHT22;58984;51.960;5.582;2022-11-20T04:06:08;8.40;43.20
71237;DHT22;58984;51.960;5.582;2022-11-20T04:08:34;8.40;43.20
71237;DHT22;58984;51.960;5.582;2022-11-20T04:11:33;8.40;43.20
71237;DHT22;58984;51.960;5.582;2022-11-20T04:14:01;8.40;43.20
71237;DHT22;58984;51.960;5.582;2022-11-20T04:16:30;8.40;43.20
71237;DHT22;58984;51.960;5.582;2022-11-20T04:19:00;8.40;43.20
71237;DHT22;58984;51.960;5.582;2022-11-20T04:21:27;8.40;43.20
71237;DHT22;58984;51.960;5.582;2022-11-20T04:23:53;8.30;43.20
71237;DHT22;58984;51.960;5.582;2022-11-20T04:26:20;8.30;43.20
71237;DHT22;58984;51.960;5.582;2022-11-20T04:28:46;8.40;43.40
71237;DHT22;58984;51.960;5.582;2022-11-20T04:31:14;8.30;43.20
71237;DHT22;58984;51.960;5.582;2022-11-20T04:33:41;8.30;43.30
71237;DHT22;58984;51.960;5.582;2022-11-20T04:36:24;8.30;43.40
71237;DHT22;58984;51.960;5.582;2022-11-20T04:39:00;8.30;43.50
71237;DHT22;58984;51.960;5.582;2022-11-20T04:41:28;8.30;43.40
71237;DHT22;58984;51.960;5.582;2022-11-20T04:43:57;8.30;43.50
71237;DHT22;58984;51.960;5.582;2022-11-20T04:46:25;8.30;43.50
71237;DHT22;58984;51.960;5.582;2022-11-20T04:48:51;8.30;43.50
71237;DHT22;58984;51.960;5.582;2022-11-20T04:51:17;8.20;43.40
71237;DHT22;58984;51.960;5.582;2022-11-20T04:53:43;8.20;43.50
71237;DHT22;58984;51.960;5.582;2022-11-20T04:56:10;8.30;44.20
71237;DHT22;58984;51.960;5.582;2022-11-20T04:58:37;8.20;43.50
71237;DHT22;58984;51.960;5.582;2022-11-20T05:01:15;8.20;43.50
71237;DHT22;58984;51.960;5.582;2022-11-20T05:03:41;8.20;43.50
71237;DHT22;58984;51.960;5.582;2022-11-20T05:06:09;8.20;43.60
71237;DHT22;58984;51.960;5.582;2022-11-20T05:08:34;8.20;43.60
71237;DHT22;58984;51.960;5.582;2022-11-20T05:11:02;8.20;43.60
71237;DHT22;58984;51.960;5.582;2022-11-20T05:13:28;8.20;43.60
71237;DHT22;58984;51.960;5.582;2022-11-20T05:15:54;8.20;43.60
71237;DHT22;58984;51.960;5.582;2022-11-20T05:18:19;8.20;43.60
71237;DHT22;58984;51.960;5.582;2022-11-20T05:20:45;8.10;43.50
71237;DHT22;58984;51.960;5.582;2022-11-20T05:23:11;8.20;43.60
71237;DHT22;58984;51.960;5.582;2022-11-20T05:25:36;8.20;43.60
71237;DHT22;58984;51.960;5.582;2022-11-20T05:28:02;8.10;43.60
71237;DHT22;58984;51.960;5.582;2022-11-20T05:30:28;8.10;43.60
71237;DHT22;58984;51.960;5.582;2022-11-20T05:32:53;8.20;43.70
71237;DHT22;58984;51.960;5.582;2022-11-20T05:35:19;8.10;43.60
71237;DHT22;58984;51.960;5.582;2022-11-20T05:37:45;8.10;43.60
71237;DHT22;58984;51.960;5.582;2022-11-20T05:40:11;8.10;43.60
71237;DHT22;58984;51.960;5.582;2022-11-20T05:42:37;8.10;43.60
71237;DHT22;58984;51.960;5.582;2022-11-20T05:45:03;8.10;43.70
71237;DHT22;58984;51.960;5.582;2022-11-20T05:47:32;8.00;43.60
71237;DHT22;58984;51.960;5.582;2022-11-20T05:49:58;8.00;43.70
71237;DHT22;58984;51.960;5.582;2022-11-20T05:52:24;8.00;43.70
71237;DHT22;58984;51.960;5.582;2022-11-20T05:54:50;8.00;43.70
71237;DHT22;58984;51.960;5.582;2022-11-20T05:57:16;8.00;43.70
71237;DHT22;58984;51.960;5.582;2022-11-20T05:59:42;8.00;43.70
71237;DHT22;58984;51.960;5.582;2022-11-20T06:02:07;8.00;43.70
71237;DHT22;58984;51.960;5.582;2022-11-20T06:04:33;8.10;43.80
71237;DHT22;58984;51.960;5.582;2022-11-20T06:06:59;8.00;43.70
71237;DHT22;58984;51.960;5.582;2022-11-20T06:09:24;8.00;43.70
71237;DHT22;58984;51.960;5.582;2022-11-20T06:11:50;8.00;43.70
71237;DHT22;58984;51.960;5.582;2022-11-20T06:14:15;8.00;43.70
71237;DHT22;58984;51.960;5.582;2022-11-20T06:16:41;8.00;43.80
71237;DHT22;58984;51.960;5.582;2022-11-20T06:19:06;8.00;43.80
71237;DHT22;58984;51.960;5.582;2022-11-20T06:21:32;8.00;43.80
71237;DHT22;58984;51.960;5.582;2022-11-20T06:23:57;8.00;43.90
71237;DHT22;58984;51.960;5.582;2022-11-20T06:26:27;7.90;43.80
71237;DHT22;58984;51.960;5.582;2022-11-20T06:28:53;7.90;43.80
71237;DHT22;58984;51.960;5.582;2022-11-20T06:31:21;7.90;43.80
71237;DHT22;58984;51.960;5.582;2022-11-20T06:33:48;7.90;43.80
71237;DHT22;58984;51.960;5.582;2022-11-20T06:36:15;7.90;43.80
71237;DHT22;58984;51.960;5.582;2022-11-20T06:38:41;7.90;43.80
71237;DHT22;58984;51.960;5.582;2022-11-20T06:41:11;7.90;43.90
71237;DHT22;58984;51.960;5.582;2022-11-20T06:43:38;7.90;43.90
71237;DHT22;58984;51.960;5.582;2022-11-20T06:46:04;7.90;44.00
71237;DHT22;58984;51.960;5.582;2022-11-20T06:48:30;7.90;44.00
71237;DHT22;58984;51.960;5.582;2022-11-20T06:50:56;7.90;44.10
71237;DHT22;58984;51.960;5.582;2022-11-20T06:53:22;7.90;44.80
71237;DHT22;58984;51.960;5.582;2022-11-20T06:55:49;7.90;44.20
71237;DHT22;58984;51.960;5.582;2022-11-20T06:58:15;7.90;44.90
71237;DHT22;58984;51.960;5.582;2022-11-20T07:00:42;7.90;44.30
71237;DHT22;58984;51.960;5.582;2022-11-20T07:03:08;7.90;44.40
71237;DHT22;58984;51.960;5.582;2022-11-20T07:05:35;7.80;44.30
71237;DHT22;58984;51.960;5.582;2022-11-20T07:08:02;7.80;44.30
71237;DHT22;58984;51.960;5.582;2022-11-20T07:10:28;7.80;44.30
71237;DHT22;58984;51.960;5.582;2022-11-20T07:12:54;7.80;44.30
71237;DHT22;58984;51.960;5.582;2022-11-20T07:15:22;7.80;44.30
71237;DHT22;58984;51.960;5.582;2022-11-20T07:17:48;7.80;44.30
71237;DHT22;58984;51.960;5.582;2022-11-20T07:20:14;7.80;44.30
71237;DHT22;58984;51.960;5.582;2022-11-20T07:22:40;7.80;44.30
71237;DHT22;58984;51.960;5.582;2022-11-20T07:25:06;7.80;44.30
71237;DHT22;58984;51.960;5.582;2022-11-20T07:27:32;7.80;44.30
71237;DHT22;58984;51.960;5.582;2022-11-20T07:29:58;7.80;44.40
71237;DHT22;58984;51.960;5.582;2022-11-20T07:32:24;7.80;44.40
71237;DHT22;58984;51.960;5.582;2022-11-20T07:34:49;7.80;44.50
71237;DHT22;58984;51.960;5.582;2022-11-20T07:37:15;7.80;44.50
71237;DHT22;58984;51.960;5.582;2022-11-20T07:39:41;7.80;44.50
71237;DHT22;58984;51.960;5.582;2022-11-20T07:42:07;7.80;44.50
71237;DHT22;58984;51.960;5.582;2022-11-20T07:44:34;7.80;44.50
71237;DHT22;58984;51.960;5.582;2022-11-20T07:46:59;7.80;44.60
71237;DHT22;58984;51.960;5.582;2022-11-20T07:49:25;7.80;44.60
71237;DHT22;58984;51.960;5.582;2022-11-20T07:51:51;7.80;44.70
71237;DHT22;58984;51.960;5.582;2022-11-20T07:54:19;7.80;44.60
71237;DHT22;58984;51.960;5.582;2022-11-20T07:56:45;7.80;44.70
71237;DHT22;58984;51.960;5.582;2022-11-20T07:59:10;7.80;44.70
71237;DHT22;58984;51.960;5.582;2022-11-20T08:01:37;7.80;44.70
71237;DHT22;58984;51.960;5.582;2022-11-20T08:04:03;7.80;44.80
71237;DHT22;58984;51.960;5.582;2022-11-20T08:06:29;7.80;44.90
71237;DHT22;58984;51.960;5.582;2022-11-20T08:08:54;7.80;44.90
71237;DHT22;58984;51.960;5.582;2022-11-20T08:11:20;7.80;45.00
71237;DHT22;58984;51.960;5.582;2022-11-20T08:14:04;7.80;45.00
71237;DHT22;58984;51.960;5.582;2022-11-20T08:16:40;7.80;45.00
71237;DHT22;58984;51.960;5.582;2022-11-20T08:19:06;7.80;45.00
71237;DHT22;58984;51.960;5.582;2022-11-20T08:21:32;7.80;45.10
71237;DHT22;58984;51.960;5.582;2022-11-20T08:23:58;7.80;45.10
71237;DHT22;58984;51.960;5.582;2022-11-20T08:26:25;7.80;45.20
71237;DHT22;58984;51.960;5.582;2022-11-20T08:28:57;7.80;45.30
71237;DHT22;58984;51.960;5.582;2022-11-20T08:31:23;7.90;45.40
71237;DHT22;58984;51.960;5.582;2022-11-20T08:33:49;7.90;45.50
71237;DHT22;58984;51.960;5.582;2022-11-20T08:36:16;7.90;45.40
71237;DHT22;58984;51.960;5.582;2022-11-20T08:38:42;7.90;45.40
71237;DHT22;58984;51.960;5.582;2022-11-20T08:41:07;7.90;45.50
71237;DHT22;58984;51.960;5.582;2022-11-20T08:43:57;7.90;45.50
71237;DHT22;58984;51.960;5.582;2022-11-20T08:46:24;7.90;45.60
71237;DHT22;58984;51.960;5.582;2022-11-20T08:48:50;7.90;45.60
71237;DHT22;58984;51.960;5.582;2022-11-20T08:51:16;7.90;45.60
71237;DHT22;58984;51.960;5.582;2022-11-20T08:53:42;7.90;45.60
71237;DHT22;58984;51.960;5.582;2022-11-20T08:56:08;7.90;45.60
71237;DHT22;58984;51.960;5.582;2022-11-20T08:58:36;8.00;45.70
71237;DHT22;58984;51.960;5.582;2022-11-20T09:01:02;8.00;45.70
71237;DHT22;58984;51.960;5.582;2022-11-20T09:03:28;8.00;45.70
71237;DHT22;58984;51.960;5.582;2022-11-20T09:06:01;8.00;45.70
71237;DHT22;58984;51.960;5.582;2022-11-20T09:08:28;8.00;45.80
71237;DHT22;58984;51.960;5.582;2022-11-20T09:10:55;8.00;45.80
71237;DHT22;58984;51.960;5.582;2022-11-20T09:13:21;8.00;45.90
71237;DHT22;58984;51.960;5.582;2022-11-20T09:15:47;8.00;45.90
71237;DHT22;58984;51.960;5.582;2022-11-20T09:18:13;8.00;45.90
71237;DHT22;58984;51.960;5.582;2022-11-20T09:20:38;8.10;46.00
71237;DHT22;58984;51.960;5.582;2022-11-20T09:23:04;8.10;46.00
71237;DHT22;58984;51.960;5.582;2022-11-20T09:25:30;8.10;46.10
71237;DHT22;58984;51.960;5.582;2022-11-20T09:27:57;8.10;46.10
71237;DHT22;58984;51.960;5.582;2022-11-20T09:30:22;8.10;46.10
71237;DHT22;58984;51.960;5.582;2022-11-20T09:32:48;8.10;46.20
71237;DHT22;58984;51.960;5.582;2022-11-20T09:35:14;8.10;46.20
71237;DHT22;58984;51.960;5.582;2022-11-20T09:37:40;8.20;46.30
71237;DHT22;58984;51.960;5.582;2022-11-20T09:40:06;8.20;46.30
71237;DHT22;58984;51.960;5.582;2022-11-20T09:46:31;8.20;46.40
71237;DHT22;58984;51.960;5.582;2022-11-20T09:51:27;8.20;46.40
71237;DHT22;58984;51.960;5.582;2022-11-20T09:54:20;8.20;46.60
71237;DHT22;58984;51.960;5.582;2022-11-20T09:57:04;8.20;46.60
71237;DHT22;58984;51.960;5.582;2022-11-20T09:59:45;8.20;46.70
71237;DHT22;58984;51.960;5.582;2022-11-20T10:05:04;8.30;46.80
71237;DHT22;58984;51.960;5.582;2022-11-20T10:10:47;8.30;47.50
71237;DHT22;58984;51.960;5.582;2022-11-20T10:26:21;8.40;47.20
71237;DHT22;58984;51.960;5.582;2022-11-20T10:29:09;8.50;47.40
71237;DHT22;58984;51.960;5.582;2022-11-20T10:31:48;8.50;47.50
71237;DHT22;58984;51.960;5.582;2022-11-20T10:34:38;8.50;47.50
71237;DHT22;58984;51.960;5.582;2022-11-20T10:37:15;8.50;47.60
71237;DHT22;58984;51.960;5.582;2022-11-20T10:42:42;8.50;47.70
71237;DHT22;58984;51.960;5.582;2022-11-20T10:50:35;8.60;48.00
71237;DHT22;58984;51.960;5.582;2022-11-20T10:53:16;8.60;48.00
71237;DHT22;58984;51.960;5.582;2022-11-20T10:55:54;8.60;48.00
71237;DHT22;58984;51.960;5.582;2022-11-20T11:01:15;8.70;48.20
71237;DHT22;58984;51.960;5.582;2022-11-20T11:03:42;8.70;48.20
71237;DHT22;58984;51.960;5.582;2022-11-20T11:06:23;8.70;48.10
71237;DHT22;58984;51.960;5.582;2022-11-20T11:08:51;8.70;48.30
71237;DHT22;58984;51.960;5.582;2022-11-20T11:11:23;8.80;48.40
71237;DHT22;58984;51.960;5.582;2022-11-20T11:13:49;8.80;48.40
71237;DHT22;58984;51.960;5.582;2022-11-20T11:16:27;8.80;48.50
71237;DHT22;58984;51.960;5.582;2022-11-20T11:19:04;8.80;48.40
71237;DHT22;58984;51.960;5.582;2022-11-20T11:21:30;8.80;48.40
71237;DHT22;58984;51.960;5.582;2022-11-20T11:24:01;8.80;48.50
71237;DHT22;58984;51.960;5.582;2022-11-20T11:26:28;8.80;48.50
71237;DHT22;58984;51.960;5.582;2022-11-20T11:31:25;8.90;48.50
71237;DHT22;58984;51.960;5.582;2022-11-20T11:33:51;8.90;48.50
71237;DHT22;58984;51.960;5.582;2022-11-20T11:36:20;8.90;48.60
71237;DHT22;58984;51.960;5.582;2022-11-20T11:38:51;8.90;48.50
71237;DHT22;58984;51.960;5.582;2022-11-20T11:41:23;9.00;48.60
71237;DHT22;58984;51.960;5.582;2022-11-20T11:44:00;9.00;48.60
71237;DHT22;58984;51.960;5.582;2022-11-20T11:46:54;8.90;48.50
71237;DHT22;58984;51.960;5.582;2022-11-20T11:49:21;9.00;48.60
71237;DHT22;58984;51.960;5.582;2022-11-20T11:52:03;9.00;49.00
71237;DHT22;58984;51.960;5.582;2022-11-20T11:54:45;9.00;49.30
71237;DHT22;58984;51.960;5.582;2022-11-20T12:00:06;9.10;49.10
71237;DHT22;58984;51.960;5.582;2022-11-20T12:08:04;9.10;49.20
71237;DHT22;58984;51.960;5.582;2022-11-20T12:13:22;9.10;49.30
71237;DHT22;58984;51.960;5.582;2022-11-20T12:15:51;9.20;49.30
71237;DHT22;58984;51.960;5.582;2022-11-20T12:18:21;9.10;49.20
71237;DHT22;58984;51.960;5.582;2022-11-20T12:29:27;9.20;49.60
71237;DHT22;58984;51.960;5.582;2022-11-20T12:32:10;9.20;49.60
71237;DHT22;58984;51.960;5.582;2022-11-20T12:37:48;9.20;49.80
71237;DHT22;58984;51.960;5.582;2022-11-20T12:43:04;9.30;49.90
71237;DHT22;58984;51.960;5.582;2022-11-20T12:46:06;9.30;50.00
71237;DHT22;58984;51.960;5.582;2022-11-20T13:05:36;9.40;50.00
71237;DHT22;58984;51.960;5.582;2022-11-20T13:07:55;9.30;50.00
71237;DHT22;58984;51.960;5.582;2022-11-20T13:10:33;9.40;50.00
71237;DHT22;58984;51.960;5.582;2022-11-20T13:16:00;9.40;50.20
71237;DHT22;58984;51.960;5.582;2022-11-20T13:18:28;9.40;50.10
71237;DHT22;58984;51.960;5.582;2022-11-20T13:20:54;9.40;50.20
71237;DHT22;58984;51.960;5.582;2022-11-20T13:23:24;9.40;50.20
71237;DHT22;58984;51.960;5.582;2022-11-20T13:25:51;9.40;50.20
71237;DHT22;58984;51.960;5.582;2022-11-20T13:28:29;9.40;50.20
71237;DHT22;58984;51.960;5.582;2022-11-20T13:30:56;9.50;50.90
71237;DHT22;58984;51.960;5.582;2022-11-20T13:33:33;9.50;50.30
71237;DHT22;58984;51.960;5.582;2022-11-20T13:38:27;9.50;50.30
71237;DHT22;58984;51.960;5.582;2022-11-20T13:40:58;9.50;50.30
71237;DHT22;58984;51.960;5.582;2022-11-20T13:43:47;9.50;50.30
71237;DHT22;58984;51.960;5.582;2022-11-20T13:46:13;9.50;50.30
71237;DHT22;58984;51.960;5.582;2022-11-20T13:48:45;9.50;50.30
71237;DHT22;58984;51.960;5.582;2022-11-20T13:51:49;9.50;50.30
71237;DHT22;58984;51.960;5.582;2022-11-20T13:54:35;9.50;50.30
71237;DHT22;58984;51.960;5.582;2022-11-20T13:57:30;9.50;50.30
71237;DHT22;58984;51.960;5.582;2022-11-20T14:00:20;9.50;50.30
71237;DHT22;58984;51.960;5.582;2022-11-20T14:02:59;9.50;50.30
71237;DHT22;58984;51.960;5.582;2022-11-20T14:05:26;9.50;50.30
71237;DHT22;58984;51.960;5.582;2022-11-20T14:07:53;9.50;50.30
71237;DHT22;58984;51.960;5.582;2022-11-20T14:12:45;9.60;50.40
71237;DHT22;58984;51.960;5.582;2022-11-20T14:15:32;9.60;50.40
71237;DHT22;58984;51.960;5.582;2022-11-20T14:17:58;9.60;50.50
71237;DHT22;58984;51.960;5.582;2022-11-20T14:20:28;9.60;50.50
71237;DHT22;58984;51.960;5.582;2022-11-20T14:22:56;9.60;50.60
71237;DHT22;58984;51.960;5.582;2022-11-20T14:25:24;9.60;50.50
71237;DHT22;58984;51.960;5.582;2022-11-20T14:30:44;9.70;50.80
71237;DHT22;58984;51.960;5.582;2022-11-20T14:33:12;9.60;50.80
71237;DHT22;58984;51.960;5.582;2022-11-20T14:35:48;9.60;50.70
71237;DHT22;58984;51.960;5.582;2022-11-20T14:38:16;9.60;50.80
71237;DHT22;58984;51.960;5.582;2022-11-20T14:40:42;9.70;50.90
71237;DHT22;58984;51.960;5.582;2022-11-20T14:45:54;9.60;50.90
71237;DHT22;58984;51.960;5.582;2022-11-20T14:48:26;9.70;51.00
71237;DHT22;58984;51.960;5.582;2022-11-20T14:50:53;9.70;51.00
71237;DHT22;58984;51.960;5.582;2022-11-20T14:53:23;9.70;51.00
71237;DHT22;58984;51.960;5.582;2022-11-20T14:55:58;9.70;51.00
71237;DHT22;58984;51.960;5.582;2022-11-20T14:58:29;9.70;51.10
71237;DHT22;58984;51.960;5.582;2022-11-20T15:01:03;9.70;51.20
71237;DHT22;58984;51.960;5.582;2022-11-20T15:03:38;9.70;51.20
71237;DHT22;58984;51.960;5.582;2022-11-20T15:06:05;9.70;51.20
71237;DHT22;58984;51.960;5.582;2022-11-20T15:08:31;9.70;51.30
71237;DHT22;58984;51.960;5.582;2022-11-20T15:10:57;9.70;51.30
71237;DHT22;58984;51.960;5.582;2022-11-20T15:13:35;9.70;51.40
71237;DHT22;58984;51.960;5.582;2022-11-20T15:16:04;9.70;51.40
71237;DHT22;58984;51.960;5.582;2022-11-20T15:18:38;9.80;51.40
71237;DHT22;58984;51.960;5.582;2022-11-20T15:21:10;9.70;51.30
71237;DHT22;58984;51.960;5.582;2022-11-20T15:23:36;9.70;51.40
71237;DHT22;58984;51.960;5.582;2022-11-20T15:26:03;9.80;51.50
71237;DHT22;58984;51.960;5.582;2022-11-20T15:28:32;9.80;51.60
71237;DHT22;58984;51.960;5.582;2022-11-20T15:30:59;9.80;51.70
71237;DHT22;58984;51.960;5.582;2022-11-20T15:33:25;9.80;51.70
71237;DHT22;58984;51.960;5.582;2022-11-20T15:35:51;9.80;51.70
71237;DHT22;58984;51.960;5.582;2022-11-20T15:38:16;9.80;51.70
71237;DHT22;58984;51.960;5.582;2022-11-20T15:40:42;9.80;51.60
71237;DHT22;58984;51.960;5.582;2022-11-20T15:43:08;9.80;51.60
71237;DHT22;58984;51.960;5.582;2022-11-20T15:45:46;9.80;51.70
71237;DHT22;58984;51.960;5.582;2022-11-20T15:48:26;9.80;51.80
71237;DHT22;58984;51.960;5.582;2022-11-20T15:51:01;9.80;51.70
71237;DHT22;58984;51.960;5.582;2022-11-20T15:53:28;9.80;51.70
71237;DHT22;58984;51.960;5.582;2022-11-20T15:55:54;9.80;51.70
71237;DHT22;58984;51.960;5.582;2022-11-20T15:58:19;9.80;51.80
71237;DHT22;58984;51.960;5.582;2022-11-20T16:00:45;9.80;51.80
71237;DHT22;58984;51.960;5.582;2022-11-20T16:03:12;9.80;51.80
71237;DHT22;58984;51.960;5.582;2022-11-20T16:05:38;9.80;51.90
71237;DHT22;58984;51.960;5.582;2022-11-20T16:08:04;9.90;51.90
71237;DHT22;58984;51.960;5.582;2022-11-20T16:10:29;9.80;51.90
71237;DHT22;58984;51.960;5.582;2022-11-20T16:12:55;9.90;51.90
71237;DHT22;58984;51.960;5.582;2022-11-20T16:15:39;9.90;52.00
71237;DHT22;58984;51.960;5.582;2022-11-20T16:18:12;9.90;52.00
71237;DHT22;58984;51.960;5.582;2022-11-20T16:20:38;9.90;52.00
71237;DHT22;58984;51.960;5.582;2022-11-20T16:23:05;9.90;52.10
71237;DHT22;58984;51.960;5.582;2022-11-20T16:25:30;9.90;52.10
71237;DHT22;58984;51.960;5.582;2022-11-20T16:27:56;9.90;52.10
71237;DHT22;58984;51.960;5.582;2022-11-20T16:30:22;9.90;52.10
71237;DHT22;58984;51.960;5.582;2022-11-20T16:32:47;9.90;52.20
71237;DHT22;58984;51.960;5.582;2022-11-20T16:35:13;9.90;52.20
71237;DHT22;58984;51.960;5.582;2022-11-20T16:37:39;9.90;52.20
71237;DHT22;58984;51.960;5.582;2022-11-20T16:40:06;9.90;52.10
71237;DHT22;58984;51.960;5.582;2022-11-20T16:42:35;9.90;52.20
71237;DHT22;58984;51.960;5.582;2022-11-20T16:45:01;9.90;52.20
71237;DHT22;58984;51.960;5.582;2022-11-20T16:47:27;10.00;51.40
71237;DHT22;58984;51.960;5.582;2022-11-20T16:49:52;9.90;52.20
71237;DHT22;58984;51.960;5.582;2022-11-20T16:52:18;10.00;51.40
71237;DHT22;58984;51.960;5.582;2022-11-20T16:54:43;9.90;52.30
71237;DHT22;58984;51.960;5.582;2022-11-20T16:57:09;10.00;51.50
71237;DHT22;58984;51.960;5.582;2022-11-20T16:59:35;10.00;51.50
71237;DHT22;58984;51.960;5.582;2022-11-20T17:02:00;10.00;51.60
71237;DHT22;58984;51.960;5.582;2022-11-20T17:04:26;10.00;51.60
71237;DHT22;58984;51.960;5.582;2022-11-20T17:06:51;10.00;51.60
71237;DHT22;58984;51.960;5.582;2022-11-20T17:09:17;10.00;51.60
71237;DHT22;58984;51.960;5.582;2022-11-20T17:11:43;10.00;51.60
71237;DHT22;58984;51.960;5.582;2022-11-20T17:14:10;10.00;51.60
71237;DHT22;58984;51.960;5.582;2022-11-20T17:16:36;10.00;51.60
71237;DHT22;58984;51.960;5.582;2022-11-20T17:19:03;10.00;51.70
71237;DHT22;58984;51.960;5.582;2022-11-20T17:21:30;10.00;51.70
71237;DHT22;58984;51.960;5.582;2022-11-20T17:23:59;10.00;51.70
71237;DHT22;58984;51.960;5.582;2022-11-20T17:26:25;10.00;51.70
71237;DHT22;58984;51.960;5.582;2022-11-20T17:28:54;10.10;51.70
71237;DHT22;58984;51.960;5.582;2022-11-20T17:31:20;10.10;51.70
71237;DHT22;58984;51.960;5.582;2022-11-20T17:33:46;10.10;51.70
71237;DHT22;58984;51.960;5.582;2022-11-20T17:36:15;10.10;51.70
71237;DHT22;58984;51.960;5.582;2022-11-20T17:38:41;10.10;51.80
71237;DHT22;58984;51.960;5.582;2022-11-20T17:43:34;10.10;51.80